| Date | Time | Temp. (oF) | Dew Point (oF) | Rel. Hum. (%) | Press. (in.) | Wind Dir. | Wind Speed (mph) | Hourly Rainfall (in.) |
|
|---|---|---|---|---|---|---|---|---|---|
| 1 | 07/06 | 00:00 | 64 | 58 | 83 | 29.82 | SW | 0 | 0.00 |
| 2 | 07/05 | 23:00 | 66 | 59 | 79 | 29.83 | SSW | 0 | 0.00 |
| 3 | 07/05 | 22:00 | 68 | 59 | 75 | 29.82 | SSW | 0 | 0.00 |
| 4 | 07/05 | 21:00 | 70 | 58 | 66 | 29.80 | SSW | 0 | 0.00 |
| 5 | 07/05 | 20:00 | 77 | 56 | 49 | 29.79 | SSE | 0 | 0.00 |
| 6 | 07/05 | 19:00 | 78 | 55 | 46 | 29.80 | SW | 0 | 0.00 |
| 7 | 07/05 | 18:00 | 78 | 55 | 47 | 29.80 | SSW | 3 | 0.00 |
| 8 | 07/05 | 17:00 | 78 | 57 | 49 | 29.81 | NNW | 0 | 0.00 |
| 9 | 07/05 | 16:00 | 78 | 56 | 48 | 29.84 | SW | 3 | 0.00 |
| 10 | 07/05 | 15:00 | 77 | 58 | 53 | 29.86 | SSW | 3 | 0.00 |
| 11 | miss | miss | miss | miss | miss | miss | miss | miss | |
| 12 | 07/05 | 14:41 | 77 | 57 | 51 | 29.87 | SW | 6 | 0.00 |
| 13 | miss | miss | miss | miss | miss | miss | miss | miss | |
| 14 | 07/05 | 14:39 | 77 | 56 | 50 | 29.87 | W | 5 | 0.00 |
| 15 | miss | miss | miss | miss | miss | miss | miss | miss | |
| 16 | 07/05 | 14:37 | 76 | 54 | 48 | 29.87 | WNW | 4 | 0.00 |
| 17 | miss | miss | miss | miss | miss | miss | miss | miss | |
| 18 | 07/05 | 14:35 | 76 | 58 | 54 | 29.87 | SW | 6 | 0.00 |
| 19 | miss | miss | miss | miss | miss | miss | miss | miss | |
| 20 | 07/05 | 14:33 | 76 | 58 | 55 | 29.87 | S | 1 | 0.00 |
| 21 | miss | miss | miss | miss | miss | miss | miss | miss | |
| 22 | 07/05 | 14:31 | 75 | 55 | 51 | 29.87 | W | 0 | 0.00 |
| 23 | miss | miss | miss | miss | miss | miss | miss | miss | |
| 24 | 07/05 | 14:29 | 76 | 56 | 51 | 29.87 | SSE | 0 | 0.00 |
| 25 | miss | miss | miss | miss | miss | miss | miss | miss | |
| 26 | 07/05 | 14:28 | 76 | 55 | 50 | 29.87 | SSW | 3 | 0.00 |
| 27 | miss | miss | miss | miss | miss | miss | miss | miss | |
| 28 | 07/05 | 14:28 | 76 | 55 | 50 | 29.87 | SSW | 3 | 0.00 |
| 29 | miss | miss | miss | miss | miss | miss | miss | miss | |
| 30 | 07/05 | 14:28 | 76 | 55 | 50 | 29.87 | SSW | 3 | 0.00 |
| 31 | miss | miss | miss | miss | miss | miss | miss | miss | |
| 32 | 07/05 | 14:28 | 76 | 55 | 50 | 29.87 | SSW | 3 | 0.00 |
| 33 | miss | miss | miss | miss | miss | miss | miss | miss | |
| 34 | 07/05 | 14:28 | 76 | 55 | 50 | 29.87 | SSW | 3 | 0.00 |
| 35 | 07/05 | 14:00 | 76 | 55 | 50 | 29.88 | S | 4 | 0.00 |
| 36 | 07/05 | 13:00 | 76 | 54 | 47 | 29.90 | WSW | 0 | 0.00 |
| 37 | 07/05 | 12:00 | 75 | 54 | 49 | 29.93 | W | 4 | 0.00 |
| 38 | 07/05 | 11:00 | 72 | 57 | 60 | 29.93 | SW | 1 | 0.00 |
| 39 | 07/05 | 10:00 | 70 | 54 | 58 | 29.95 | NE | 2 | 0.00 |
| 40 | 07/05 | 09:00 | 70 | 55 | 61 | 29.95 | ESE | 4 | 0.00 |
| 41 | 07/05 | 08:00 | 65 | 55 | 72 | 29.96 | N | 0 | 0.00 |
| 42 | 07/05 | 07:00 | 58 | 55 | 92 | 29.95 | NW | 0 | 0.00 |
| 43 | 07/05 | 06:00 | 57 | 53 | 89 | 29.94 | NW | 0 | 0.00 |
| 44 | 07/05 | 05:00 | 59 | 54 | 84 | 29.93 | NW | 0 | 0.00 |
| 45 | 07/05 | 04:00 | 62 | 54 | 76 | 29.93 | NW | 0 | 0.00 |
| 46 | 07/05 | 03:00 | 64 | 53 | 70 | 29.92 | NW | 0 | 0.00 |
| 47 | 07/05 | 02:00 | 66 | 54 | 66 | 29.92 | NNW | 0 | 0.00 |
| 48 | 07/05 | 01:00 | 67 | 53 | 63 | 29.92 | NW | 0 | 0.00 |
| 49 | 07/05 | 00:00 | 69 | 54 | 59 | 29.91 | NW | 0 | 0.00 |
| 50 | 07/04 | 23:00 | 70 | 54 | 58 | 29.90 | NW | 1 | 0.00 |
| 51 | 07/04 | 22:00 | 71 | 53 | 55 | 29.90 | WSW | 3 | 0.00 |
| 52 | 07/04 | 21:00 | 73 | 54 | 52 | 29.88 | WNW | 0 | 0.00 |
| 53 | 07/04 | 20:00 | 75 | 54 | 49 | 29.88 | WNW | 3 | 0.00 |
| 54 | 07/04 | 19:00 | 77 | 55 | 47 | 29.87 | N | 4 | 0.00 |
| 55 | 07/04 | 18:00 | 78 | 55 | 46 | 29.86 | NNW | 5 | 0.00 |
| 56 | 07/04 | 17:00 | 81 | 55 | 42 | 29.86 | WNW | 7 | 0.00 |
| 57 | 07/04 | 16:00 | 83 | 57 | 42 | 29.87 | NW | 8 | 0.00 |
| 58 | 07/04 | 15:00 | 81 | 56 | 43 | 29.89 | WSW | 5 | 0.00 |
| 59 | 07/04 | 14:00 | 80 | 56 | 45 | 29.91 | WNW | 4 | 0.00 |
| 60 | 07/04 | 13:00 | 79 | 59 | 52 | 29.91 | W | 4 | 0.00 |
| 61 | miss | miss | miss | miss | miss | miss | miss | miss | |
| 62 | 07/04 | 12:25 | 77 | 57 | 51 | 29.92 | WNW | 13 | 0.00 |
| 63 | miss | miss | miss | miss | miss | miss | miss | miss | |
| 64 | 07/04 | 12:23 | 77 | 57 | 52 | 29.92 | WNW | 10 | 0.00 |
| 65 | miss | miss | miss | miss | miss | miss | miss | miss | |
| 66 | 07/04 | 12:21 | 77 | 57 | 52 | 29.92 | W | 12 | 0.00 |
| 67 | miss | miss | miss | miss | miss | miss | miss | miss | |
| 68 | 07/04 | 12:19 | 77 | 57 | 51 | 29.92 | W | 5 | 0.00 |
| 69 | miss | miss | miss | miss | miss | miss | miss | miss | |
| 70 | 07/04 | 12:17 | 77 | 57 | 52 | 29.92 | NNW | 10 | 0.00 |
| 71 | miss | miss | miss | miss | miss | miss | miss | miss | |
| 72 | 07/04 | 12:15 | 77 | 57 | 52 | 29.92 | NW | 2 | 0.00 |
| 73 | miss | miss | miss | miss | miss | miss | miss | miss | |
| 74 | 07/04 | 12:13 | 77 | 59 | 55 | 29.93 | NW | 3 | 0.00 |
| 75 | miss | miss | miss | miss | miss | miss | miss | miss | |
| 76 | 07/04 | 12:13 | 77 | 59 | 55 | 29.93 | NW | 3 | 0.00 |
| 77 | miss | miss | miss | miss | miss | miss | miss | miss | |
| 78 | 07/04 | 12:13 | 77 | 59 | 55 | 29.93 | NW | 3 | 0.00 |
| 79 | miss | miss | miss | miss | miss | miss | miss | miss | |
| 80 | 07/04 | 12:13 | 77 | 59 | 55 | 29.93 | NW | 3 | 0.00 |
| 81 | miss | miss | miss | miss | miss | miss | miss | miss | |
| 82 | 07/04 | 12:13 | 77 | 59 | 55 | 29.93 | NW | 3 | 0.00 |
| 83 | miss | miss | miss | miss | miss | miss | miss | miss | |
| 84 | 07/04 | 12:13 | 77 | 59 | 55 | 29.93 | NW | 3 | 0.00 |
| 85 | 07/04 | 12:00 | 77 | 58 | 54 | 29.93 | WNW | 8 | 0.00 |
| 86 | 07/04 | 11:00 | 74 | 59 | 61 | 29.93 | W | 9 | 0.00 |
| 87 | 07/04 | 10:00 | 73 | 60 | 65 | 29.94 | NW | 3 | 0.00 |
| 88 | 07/04 | 09:00 | 71 | 61 | 71 | 29.95 | W | 5 | 0.00 |
| 89 | 07/04 | 08:00 | 67 | 61 | 82 | 29.94 | WSW | 0 | 0.00 |
| 90 | 07/04 | 07:00 | 62 | 58 | 89 | 29.94 | WSW | 0 | 0.00 |
| 91 | 07/04 | 06:00 | 60 | 57 | 90 | 29.94 | WSW | 0 | 0.00 |
| 92 | 07/04 | 05:00 | 60 | 56 | 88 | 29.93 | SSW | 0 | 0.00 |
| 93 | 07/04 | 04:00 | 63 | 58 | 84 | 29.92 | SW | 0 | 0.00 |
| 94 | miss | miss | miss | miss | miss | miss | miss | miss | |
| 95 | 07/04 | 03:37 | 63 | 57 | 83 | 29.93 | W | 0 | 0.00 |
| 96 | miss | miss | miss | miss | miss | miss | miss | miss | |
| 97 | 07/04 | 03:35 | 63 | 57 | 83 | 29.92 | W | 0 | 0.00 |
| 98 | miss | miss | miss | miss | miss | miss | miss | miss | |
| 99 | 07/04 | 03:35 | 63 | 57 | 83 | 29.92 | W | 0 | 0.00 |
| 100 | miss | miss | miss | miss | miss | miss | miss | miss | |
| 101 | 07/04 | 03:35 | 63 | 57 | 83 | 29.92 | W | 0 | 0.00 |
| 102 | miss | miss | miss | miss | miss | miss | miss | miss | |
| 103 | 07/04 | 03:35 | 63 | 57 | 83 | 29.92 | W | 0 | 0.00 |
| 104 | miss | miss | miss | miss | miss | miss | miss | miss | |
| 105 | 07/04 | 03:35 | 63 | 57 | 83 | 29.92 | W | 0 | 0.00 |
| 106 | miss | miss | miss | miss | miss | miss | miss | miss | |
| 107 | 07/04 | 03:35 | 63 | 57 | 83 | 29.92 | W | 0 | 0.00 |
| 108 | miss | miss | miss | miss | miss | miss | miss | miss | |
| 109 | 07/04 | 03:35 | 63 | 57 | 83 | 29.92 | W | 0 | 0.00 |
| 110 | miss | miss | miss | miss | miss | miss | miss | miss | |
| 111 | 07/04 | 03:35 | 63 | 57 | 83 | 29.92 | W | 0 | 0.00 |
| 112 | miss | miss | miss | miss | miss | miss | miss | miss | |
| 113 | 07/04 | 03:35 | 63 | 57 | 83 | 29.92 | W | 0 | 0.00 |
| 114 | miss | miss | miss | miss | miss | miss | miss | miss | |
| 115 | 07/04 | 03:35 | 63 | 57 | 83 | 29.92 | W | 0 | 0.00 |
| 116 | miss | miss | miss | miss | miss | miss | miss | miss | |
| 117 | 07/04 | 03:35 | 63 | 57 | 83 | 29.92 | W | 0 | 0.00 |
| 118 | 07/04 | 03:00 | 63 | 57 | 83 | 29.93 | W | 0 | 0.00 |
| 119 | 07/04 | 02:00 | 65 | 57 | 78 | 29.93 | W | 0 | 0.00 |
| 120 | 07/04 | 01:00 | 67 | 59 | 76 | 29.94 | NNW | 0 | 0.00 |
| 121 | 07/04 | 00:00 | 69 | 59 | 73 | 29.94 | WNW | 4 | 0.00 |